Time;durP1;ratioP1;P1;durP2;ratioP2;P2;SDS_P1;SDS_P2;PMS_P1;PMS_P2;Temp;Humidity;BMP_temperature;BMP_pressure;BME280_temperature;BME280_humidity;BME280_pressure;Samples;Min_cycle;Max_cycle;Signal;HPM_P1;HPM_P2
2024/02/10 00:02:12;;;;;;;;;3.00;1.00;;;;;-144.24;100.00;109052.75;5067926;28;45430;-71
2024/02/10 00:04:40;;;;;;;;;2.00;2.00;;;;;-144.24;100.00;108861.50;5069159;28;61951;-71
2024/02/10 00:07:06;;;;;;;;;2.33;1.33;;;;;-144.24;100.00;108637.69;5076504;28;45442;-71
2024/02/10 00:09:32;;;;;;;;;2.00;2.00;;;;;-144.24;100.00;108481.06;5066731;28;49975;-71
2024/02/10 00:11:58;;;;;;;;;1.00;1.00;;;;;-144.24;100.00;108314.22;5074584;28;45449;-70
2024/02/10 00:14:23;;;;;;;;;2.00;2.00;;;;;-144.24;100.00;108043.69;5071913;28;45981;-70
2024/02/10 00:16:50;;;;;;;;;2.00;2.00;;;;;-144.24;100.00;107874.84;5072261;28;45342;-71
2024/02/10 00:19:16;;;;;;;;;1.33;1.33;;;;;-144.24;100.00;107730.44;5066943;28;45324;-71
2024/02/10 00:21:45;;;;;;;;;1.00;1.00;;;;;-144.24;100.00;107567.72;5069857;28;45659;-71
2024/02/10 00:24:11;;;;;;;;;2.00;2.00;;;;;-144.24;100.00;107459.91;5068327;28;46010;-71
2024/02/10 00:26:38;;;;;;;;;3.00;2.00;;;;;-144.24;100.00;107382.63;5062915;27;45498;-71
2024/02/10 00:29:03;;;;;;;;;2.00;2.00;;;;;-144.24;100.00;107215.84;5063525;28;45475;-70
2024/02/10 00:31:30;;;;;;;;;3.00;2.00;;;;;-144.24;100.00;107165.00;5046171;28;45711;-70
2024/02/10 00:33:57;;;;;;;;;1.00;1.00;;;;;-144.24;100.00;106939.28;5065922;28;46913;-71
2024/02/10 00:36:23;;;;;;;;;4.67;1.33;;;;;-144.24;100.00;106959.59;5069328;28;45371;-70
2024/02/10 00:38:48;;;;;;;;;2.67;2.00;;;;;-144.24;100.00;106847.75;5071726;28;45443;-70
2024/02/10 00:41:13;;;;;;;;;3.67;1.00;;;;;-144.24;100.00;106656.59;5071577;28;63802;-71
2024/02/10 00:43:44;;;;;;;;;2.00;2.00;;;;;-144.24;100.00;106778.63;5051335;28;45445;-70
2024/02/10 00:46:10;;;;;;;;;2.00;2.00;;;;;-144.24;100.00;106693.19;5066715;28;45525;-71
2024/02/10 00:48:37;;;;;;;;;2.00;2.00;;;;;-144.24;100.00;106699.31;5048401;28;45468;-70
2024/02/10 00:51:04;;;;;;;;;3.67;2.00;;;;;-144.24;100.00;106778.63;5065596;28;45719;-71
2024/02/10 00:53:30;;;;;;;;;2.00;2.00;;;;;-144.24;100.00;106750.16;5064866;28;45898;-70
2024/02/10 00:55:55;;;;;;;;;2.00;2.00;;;;;-144.24;100.00;106711.50;5074876;28;50138;-72
2024/02/10 00:58:20;;;;;;;;;2.00;2.00;;;;;-144.24;100.00;106640.34;5070522;28;62134;-71
2024/02/10 01:00:45;;;;;;;;;2.00;2.00;;;;;-144.24;100.00;106569.16;5058373;28;59193;-70
2024/02/10 01:03:13;;;;;;;;;3.00;3.00;;;;;-144.24;100.00;106542.72;5068155;28;72848;-71
2024/02/10 01:05:39;;;;;;;;;4.33;3.00;;;;;-144.24;100.00;106607.81;5070918;28;45576;-71
2024/02/10 01:08:08;;;;;;;;;6.00;3.00;;;;;-144.24;100.00;106565.09;5064730;28;45392;-72
2024/02/10 01:10:34;;;;;;;;;2.33;2.33;;;;;-144.24;100.00;106477.66;5073352;28;45479;-71
2024/02/10 01:13:03;;;;;;;;;3.00;3.00;;;;;-144.24;100.00;106258.06;5067143;28;46061;-71
2024/02/10 01:15:30;;;;;;;;;2.67;2.00;;;;;-144.24;100.00;106223.50;5068277;28;45422;-70
2024/02/10 01:17:56;;;;;;;;;3.00;3.00;;;;;-144.24;100.00;105928.69;5067481;28;45498;-71
2024/02/10 01:20:22;;;;;;;;;3.67;3.00;;;;;-144.24;100.00;105709.09;5065894;28;45637;-71
2024/02/10 01:22:47;;;;;;;;;6.00;4.00;;;;;-144.24;100.00;105696.91;5066169;28;45723;-71
2024/02/10 01:25:13;;;;;;;;;5.00;4.00;;;;;-144.24;100.00;105503.78;5060774;28;56530;-70
2024/02/10 01:27:38;;;;;;;;;5.00;3.67;;;;;-144.24;100.00;105349.28;5071835;28;45526;-70
2024/02/10 01:30:04;;;;;;;;;6.33;3.33;;;;;-144.24;100.00;105292.38;5069414;28;46435;-70
2024/02/10 01:32:30;;;;;;;;;3.00;3.00;;;;;-144.24;100.00;105371.63;5071689;27;45719;-71
2024/02/10 01:34:55;;;;;;;;;3.67;3.67;;;;;-144.24;100.00;105330.97;5067718;28;45447;-71
2024/02/10 01:37:21;;;;;;;;;5.00;4.00;;;;;-144.24;100.00;105416.38;5051652;28;62582;-71
2024/02/10 01:39:48;;;;;;;;;5.00;4.00;;;;;-144.24;100.00;105481.41;5066889;27;45685;-71
2024/02/10 01:42:27;;;;;;;;;5.00;4.67;;;;;-144.24;100.00;105564.75;5066416;27;46709;-69
2024/02/10 01:44:52;;;;;;;;;4.33;4.00;;;;;-144.24;100.00;105304.56;5072655;27;45616;-71
2024/02/10 01:47:20;;;;;;;;;5.00;3.33;;;;;-144.24;100.00;105178.53;5066399;27;45834;-71
2024/02/10 01:49:45;;;;;;;;;3.00;3.00;;;;;-144.24;100.00;105174.47;5069627;27;45384;-70
2024/02/10 01:52:11;;;;;;;;;4.33;4.00;;;;;-144.24;100.00;105204.94;5048043;28;46640;-71
2024/02/10 01:54:38;;;;;;;;;3.33;3.33;;;;;-144.24;100.00;105164.28;5052586;28;45419;-72
2024/02/10 01:57:07;;;;;;;;;6.00;5.00;;;;;-144.24;100.00;105166.31;5047232;28;45423;-71
2024/02/10 01:59:35;;;;;;;;;7.00;5.67;;;;;-144.24;100.00;105123.63;5061928;27;66171;-69
2024/02/10 02:02:04;;;;;;;;;3.00;3.00;;;;;-144.24;100.00;105150.06;5066070;27;72974;-70
2024/02/10 02:04:31;;;;;;;;;5.00;4.00;;;;;-144.24;100.00;105028.09;5059734;28;45330;-70
2024/02/10 02:06:59;;;;;;;;;5.33;5.33;;;;;-144.24;100.00;104881.75;5066472;27;45996;-70
2024/02/10 02:09:24;;;;;;;;;5.67;4.00;;;;;-144.24;100.00;104794.34;5069964;27;45411;-70
2024/02/10 02:11:51;;;;;;;;;5.67;4.00;;;;;-144.24;100.00;104623.63;5059448;27;69440;-70
2024/02/10 02:14:16;;;;;;;;;5.33;5.00;;;;;-144.24;100.00;104420.38;5050788;28;45801;-71
2024/02/10 02:16:46;;;;;;;;;4.00;4.00;;;;;-144.24;100.00;104465.09;5077992;27;45519;-71
2024/02/10 02:19:16;;;;;;;;;4.00;4.00;;;;;-144.24;100.00;104367.53;5072044;27;45513;-72
2024/02/10 02:21:42;;;;;;;;;3.00;3.00;;;;;-144.24;100.00;104393.97;5069232;28;46749;-70
2024/02/10 02:24:08;;;;;;;;;4.00;4.00;;;;;-144.24;100.00;104322.81;5076030;27;45453;-70
2024/02/10 02:26:33;;;;;;;;;3.00;3.00;;;;;-144.24;100.00;104172.44;5069510;27;45419;-71
2024/02/10 02:28:59;;;;;;;;;5.67;3.67;;;;;-144.24;100.00;104186.66;5071049;27;45492;-72
2024/02/10 02:31:25;;;;;;;;;4.33;4.33;;;;;-144.24;100.00;104219.19;5072095;27;74035;-72
2024/02/10 02:33:51;;;;;;;;;6.00;5.00;;;;;-144.24;100.00;104054.56;5055076;27;45269;-70
2024/02/10 02:36:18;;;;;;;;;6.67;5.00;;;;;-144.24;100.00;104032.22;5075926;27;45239;-71
2024/02/10 02:38:44;;;;;;;;;8.33;5.67;;;;;-144.24;100.00;104186.66;5057665;28;45477;-71
2024/02/10 02:41:10;;;;;;;;;5.00;5.00;;;;;-144.24;100.00;104144.00;5075170;27;45570;-70
2024/02/10 02:43:35;;;;;;;;;6.00;6.00;;;;;-144.24;100.00;104127.72;5069198;27;65310;-70
2024/02/10 02:46:06;;;;;;;;;6.00;4.00;;;;;-144.24;100.00;104131.78;5076396;27;45456;-72
2024/02/10 02:48:32;;;;;;;;;8.33;5.00;;;;;-144.24;100.00;104231.38;5064900;27;45376;-71
2024/02/10 02:50:57;;;;;;;;;6.67;5.67;;;;;-144.24;100.00;104164.31;5055065;27;46161;-71
2024/02/10 02:53:25;;;;;;;;;6.00;5.00;;;;;-144.24;100.00;104249.66;5050082;27;45319;-71
2024/02/10 02:55:51;;;;;;;;;6.00;6.00;;;;;-144.24;100.00;104125.69;5070792;27;45321;-70
2024/02/10 02:58:18;;;;;;;;;5.67;5.33;;;;;-144.24;100.00;104162.28;5073100;27;45635;-71
2024/02/10 03:00:47;;;;;;;;;6.00;5.67;;;;;-144.24;100.00;104245.59;5076432;27;47011;-70
2024/02/10 03:03:13;;;;;;;;;5.33;5.00;;;;;-144.24;100.00;104099.28;5078602;27;45331;-70
2024/02/10 03:05:40;;;;;;;;;6.67;5.00;;;;;-144.24;100.00;104182.59;5065865;27;45234;-71
2024/02/10 03:08:06;;;;;;;;;5.33;5.33;;;;;-144.24;100.00;104200.88;5072485;27;45669;-71
2024/02/10 03:10:32;;;;;;;;;9.33;7.33;;;;;-144.24;100.00;104152.13;5078573;27;47571;-70
2024/02/10 03:12:57;;;;;;;;;6.67;5.67;;;;;-144.24;100.00;104105.38;5079305;27;45425;-71
2024/02/10 03:15:24;;;;;;;;;5.67;4.00;;;;;-144.24;100.00;104168.38;5071693;27;46047;-72
2024/02/10 03:17:49;;;;;;;;;5.67;5.67;;;;;-144.24;100.00;104101.31;5070548;27;45458;-71
2024/02/10 03:20:21;;;;;;;;;6.33;5.00;;;;;-144.24;100.00;104013.94;5051099;27;45989;-71
2024/02/10 03:22:53;;;;;;;;;5.67;5.67;;;;;-144.24;100.00;104022.06;5076040;27;45387;-71
2024/02/10 03:25:19;;;;;;;;;6.00;6.00;;;;;-144.24;100.00;104046.44;5077744;27;45437;-71
2024/02/10 03:27:44;;;;;;;;;8.67;6.00;;;;;-144.24;100.00;104111.47;5077623;27;45450;-71
2024/02/10 03:30:10;;;;;;;;;4.33;4.00;;;;;-144.24;100.00;103887.94;5074897;27;46423;-71
2024/02/10 03:32:36;;;;;;;;;10.00;7.00;;;;;-144.24;100.00;103902.16;5076873;27;45495;-71
2024/02/10 03:35:01;;;;;;;;;6.33;6.33;;;;;-144.24;100.00;103857.44;5071836;27;62862;-70
2024/02/10 03:37:28;;;;;;;;;5.00;4.00;;;;;-144.24;100.00;103670.50;5070826;27;45478;-72
2024/02/10 03:39:54;;;;;;;;;6.33;6.00;;;;;-144.24;100.00;103627.84;5077248;27;46640;-70
2024/02/10 03:42:19;;;;;;;;;5.67;5.67;;;;;-144.24;100.00;103589.22;5073137;27;45452;-71
2024/02/10 03:44:46;;;;;;;;;5.67;5.00;;;;;-144.24;100.00;103595.31;5074352;27;68084;-72
2024/02/10 03:47:12;;;;;;;;;6.67;5.00;;;;;-144.24;100.00;103709.13;5069345;27;45458;-70
2024/02/10 03:49:37;;;;;;;;;7.00;5.67;;;;;-144.24;100.00;103577.03;5073863;27;46636;-72
2024/02/10 03:52:02;;;;;;;;;5.00;5.00;;;;;-144.24;100.00;103615.63;5066298;28;57456;-72
2024/02/10 03:54:30;;;;;;;;;5.00;5.00;;;;;-144.24;100.00;103599.38;5071282;27;45420;-70
2024/02/10 03:56:55;;;;;;;;;6.33;6.33;;;;;-144.24;100.00;103534.38;5060367;27;45462;-70
2024/02/10 03:59:22;;;;;;;;;9.00;5.33;;;;;-144.24;100.00;103601.41;5068168;27;46736;-70
2024/02/10 04:01:47;;;;;;;;;4.00;4.00;;;;;-144.24;100.00;103556.72;5067013;27;45396;-71
2024/02/10 04:04:15;;;;;;;;;7.33;7.33;;;;;-144.24;100.00;103564.84;5046238;28;45321;-72
2024/02/10 04:06:41;;;;;;;;;10.00;6.00;;;;;-144.24;100.00;103485.59;5073592;27;45511;-71
2024/02/10 04:09:06;;;;;;;;;12.33;7.67;;;;;-144.24;100.00;103416.50;5066332;28;72267;-71
2024/02/10 04:11:32;;;;;;;;;7.33;7.33;;;;;-144.24;100.00;103347.44;5068795;27;45445;-70
2024/02/10 04:14:00;;;;;;;;;7.67;7.33;;;;;-144.24;100.00;103119.88;5063377;27;45590;-71
2024/02/10 04:16:26;;;;;;;;;6.00;6.00;;;;;-144.24;100.00;103067.03;5067752;28;45567;-70
2024/02/10 04:18:55;;;;;;;;;8.33;8.33;;;;;-144.24;100.00;102995.94;5077535;27;45855;-70
2024/02/10 04:21:20;;;;;;;;;11.67;6.33;;;;;-144.24;100.00;102784.66;5069117;27;45515;-70
2024/02/10 04:23:46;;;;;;;;;7.33;5.00;;;;;-144.24;100.00;103103.63;5063745;27;45534;-71
2024/02/10 04:26:11;;;;;;;;;7.00;7.00;;;;;-144.24;100.00;102859.81;5044327;28;64022;-71
2024/02/10 04:28:36;;;;;;;;;6.33;6.33;;;;;-144.24;100.00;102739.97;5051322;27;46851;-70
2024/02/10 04:31:03;;;;;;;;;11.67;9.00;;;;;-144.24;100.00;102778.56;5073039;27;50976;-71
2024/02/10 04:33:28;;;;;;;;;9.33;7.33;;;;;-144.24;100.00;102668.84;5047711;27;45371;-70
2024/02/10 04:35:54;;;;;;;;;9.67;7.00;;;;;-144.24;100.00;102534.78;5062431;27;52470;-70
2024/02/10 04:38:21;;;;;;;;;5.33;5.33;;;;;-144.24;100.00;102551.03;5065505;28;46555;-72
2024/02/10 04:40:47;;;;;;;;;5.33;5.00;;;;;-144.24;100.00;102339.75;5069921;27;45429;-70
2024/02/10 04:43:12;;;;;;;;;9.33;6.67;;;;;-144.24;100.00;102315.38;5082496;27;45375;-71
2024/02/10 04:45:38;;;;;;;;;12.00;6.33;;;;;-144.24;100.00;102217.88;5061192;27;56880;-71
2024/02/10 04:48:04;;;;;;;;;7.33;7.33;;;;;-144.24;100.00;102167.09;5081646;27;45932;-70
2024/02/10 04:50:30;;;;;;;;;7.00;6.33;;;;;-144.24;100.00;102089.91;5065765;27;45427;-71
2024/02/10 04:52:57;;;;;;;;;13.00;8.67;;;;;-144.24;100.00;102037.09;5050863;27;45315;-70
2024/02/10 04:55:23;;;;;;;;;7.00;5.67;;;;;-144.24;100.00;101911.19;5059014;27;45471;-71
2024/02/10 04:57:51;;;;;;;;;6.00;6.00;;;;;-144.24;100.00;101917.28;5064916;27;46934;-72
2024/02/10 05:00:18;;;;;;;;;10.00;10.00;;;;;-144.24;100.00;101807.59;5075246;27;46129;-70
2024/02/10 05:02:47;;;;;;;;;11.67;10.00;;;;;-144.24;100.00;101626.84;5072343;27;45300;-71
2024/02/10 05:05:13;;;;;;;;;6.00;6.00;;;;;-144.24;100.00;101791.34;5069618;27;45406;-72
2024/02/10 05:07:42;;;;;;;;;8.33;6.00;;;;;-144.24;100.00;101752.75;5065093;27;47006;-71
2024/02/10 05:10:15;;;;;;;;;6.00;6.00;;;;;-144.24;100.00;101726.34;5075599;27;45553;-71
2024/02/10 05:12:44;;;;;;;;;11.00;9.00;;;;;-144.24;100.00;101590.28;5071834;28;45421;-71
2024/02/10 05:15:10;;;;;;;;;9.00;6.00;;;;;-144.24;100.00;101657.28;5065714;27;45515;-72
2024/02/10 05:17:40;;;;;;;;;9.00;8.00;;;;;-144.24;100.00;101596.38;5072197;27;46558;-70
2024/02/10 05:20:08;;;;;;;;;8.67;8.67;;;;;-144.24;100.00;101754.78;5073973;27;45674;-71
2024/02/10 05:22:34;;;;;;;;;9.00;6.00;;;;;-144.24;100.00;101750.72;5068238;27;45552;-70
2024/02/10 05:25:03;;;;;;;;;6.67;6.00;;;;;-144.24;100.00;101964.00;5059356;27;45529;-70
2024/02/10 05:27:28;;;;;;;;;9.67;6.00;;;;;-144.24;100.00;101933.53;5070090;27;45773;-71
2024/02/10 05:29:55;;;;;;;;;6.67;6.67;;;;;-144.24;100.00;101831.97;5057314;28;66299;-72
2024/02/10 05:32:22;;;;;;;;;8.00;8.00;;;;;-144.24;100.00;101917.28;5075247;27;45616;-71
2024/02/10 05:34:48;;;;;;;;;9.00;9.00;;;;;-144.24;100.00;101752.75;5073024;27;45325;-70
2024/02/10 05:37:14;;;;;;;;;9.00;8.00;;;;;-144.24;100.00;101809.63;5069895;27;45881;-71
2024/02/10 05:39:40;;;;;;;;;10.33;6.67;;;;;-144.24;100.00;101795.41;5070117;27;45434;-70
2024/02/10 05:42:06;;;;;;;;;11.00;9.00;;;;;-144.24;100.00;101695.88;5063635;27;45522;-71
2024/02/10 05:44:32;;;;;;;;;10.00;10.00;;;;;-144.24;100.00;101762.91;5079920;27;45433;-70
2024/02/10 05:47:00;;;;;;;;;8.00;8.00;;;;;-144.24;100.00;101718.22;5054788;28;45808;-70
2024/02/10 05:49:26;;;;;;;;;12.00;9.67;;;;;-144.24;100.00;101880.72;5072487;27;45360;-70
2024/02/10 05:51:51;;;;;;;;;12.00;10.00;;;;;-144.24;100.00;101783.22;5069001;27;45489;-71
2024/02/10 05:54:16;;;;;;;;;10.33;9.00;;;;;-144.24;100.00;101884.78;5064910;27;45471;-71
2024/02/10 05:56:43;;;;;;;;;15.00;9.00;;;;;-144.24;100.00;102002.59;5074992;27;71240;-70
2024/02/10 05:59:09;;;;;;;;;9.00;9.00;;;;;-144.24;100.00;101945.72;5070166;27;45249;-70
2024/02/10 06:01:35;;;;;;;;;9.00;5.67;;;;;-144.24;100.00;101961.97;5055738;28;45540;-71
2024/02/10 06:04:01;;;;;;;;;9.00;9.00;;;;;-144.24;100.00;102039.13;5065822;27;45479;-71
2024/02/10 06:06:27;;;;;;;;;8.67;5.67;;;;;-144.24;100.00;102136.63;5075083;27;45717;-69
2024/02/10 06:08:52;;;;;;;;;10.67;8.33;;;;;-144.24;100.00;102228.03;5066535;27;63478;-71
2024/02/10 06:11:18;;;;;;;;;12.00;10.00;;;;;-144.24;100.00;102315.38;5063516;27;54235;-72
2024/02/10 06:13:46;;;;;;;;;12.67;9.00;;;;;-144.24;100.00;102414.94;5048158;28;45578;-72
2024/02/10 06:16:11;;;;;;;;;10.67;8.67;;;;;-144.24;100.00;102427.13;5061674;27;46052;-70
2024/02/10 06:18:36;;;;;;;;;9.00;9.00;;;;;-144.24;100.00;102689.16;5065004;27;70279;-70
2024/02/10 06:21:02;;;;;;;;;9.00;8.00;;;;;-144.24;100.00;102536.81;5072239;27;64255;-70
2024/02/10 06:23:30;;;;;;;;;10.33;8.00;;;;;-144.24;100.00;102666.81;5065150;27;45451;-71
2024/02/10 06:25:56;;;;;;;;;11.00;9.00;;;;;-144.24;100.00;102609.94;5066923;27;45971;-71
2024/02/10 06:28:22;;;;;;;;;10.00;9.67;;;;;-144.24;100.00;102843.56;5066820;27;45486;-71
2024/02/10 06:30:51;;;;;;;;;11.33;9.00;;;;;-144.24;100.00;102778.56;5062199;27;63363;-71
2024/02/10 06:33:18;;;;;;;;;10.00;8.00;;;;;-144.24;100.00;103008.13;5074499;27;45532;-72
2024/02/10 06:35:47;;;;;;;;;9.00;9.00;;;;;-144.24;100.00;103042.66;5074542;27;45805;-70
2024/02/10 06:38:13;;;;;;;;;8.67;8.67;;;;;-144.24;100.00;102912.63;5199580;22;45448;-70
2024/02/10 06:40:38;;;;;;;;;8.00;8.00;;;;;-144.24;100.00;103136.13;5073074;28;45434;-70
2024/02/10 06:43:03;;;;;;;;;8.33;8.33;;;;;-144.24;100.00;103087.38;5070639;28;54838;-71
2024/02/10 06:45:30;;;;;;;;;8.67;8.33;;;;;-144.24;100.00;103172.69;5068551;28;50802;-72
2024/02/10 06:47:56;;;;;;;;;10.67;8.00;;;;;-144.24;100.00;103042.66;5075364;28;45741;-72
2024/02/10 06:50:26;;;;;;;;;16.25;10.25;;;;;-144.24;100.00;103077.22;5052405;28;45431;-71
2024/02/10 06:52:52;;;;;;;;;10.33;10.33;;;;;-144.24;100.00;103164.56;5065972;28;45293;-71
2024/02/10 06:55:19;;;;;;;;;10.00;9.00;;;;;-144.24;100.00;103251.94;5052475;28;46679;-71
2024/02/10 06:57:47;;;;;;;;;8.00;4.00;;;;;-144.24;100.00;103207.25;5075073;28;45417;-72
2024/02/10 07:00:14;;;;;;;;;10.33;8.67;;;;;-144.24;100.00;102880.13;5066021;28;46185;-72
2024/02/10 07:02:49;;;;;;;;;10.33;8.00;;;;;-144.24;100.00;102853.72;5073794;28;45404;-70
2024/02/10 07:05:19;;;;;;;;;11.67;10.00;;;;;-144.24;100.00;102744.03;5076881;28;46747;-71
2024/02/10 07:07:48;;;;;;;;;10.00;10.00;;;;;-144.24;100.00;102733.88;5068516;28;45383;-69
2024/02/10 07:10:22;;;;;;;;;10.33;5.67;;;;;-144.24;100.00;102754.19;5074271;28;45480;-70
2024/02/10 07:12:49;;;;;;;;;10.00;8.67;;;;;-144.24;100.00;102693.22;5055238;28;45442;-71
2024/02/10 07:15:19;;;;;;;;;12.33;10.33;;;;;-144.24;100.00;102660.72;5076220;28;46450;-71
2024/02/10 07:17:50;;;;;;;;;9.33;9.33;;;;;-144.24;100.00;102656.66;5057256;28;45465;-72
2024/02/10 07:20:22;;;;;;;;;8.67;8.67;;;;;-144.24;100.00;102725.75;5077408;28;45521;-70
2024/02/10 07:22:50;;;;;;;;;10.67;7.67;;;;;-144.24;100.00;102530.72;5046957;28;45649;-70
2024/02/10 07:25:19;;;;;;;;;9.33;9.33;;;;;-144.24;100.00;102536.81;5056897;28;46487;-70
2024/02/10 07:27:46;;;;;;;;;10.67;10.33;;;;;-144.24;100.00;102569.31;5075980;28;45530;-71
2024/02/10 07:30:13;;;;;;;;;12.00;10.33;;;;;-144.24;100.00;102471.81;5075477;28;45517;-72
2024/02/10 07:32:38;;;;;;;;;12.67;8.33;;;;;-144.24;100.00;102337.72;5071755;28;45437;-71
2024/02/10 07:35:04;;;;;;;;;10.00;8.00;;;;;-144.24;100.00;102232.09;5073296;28;70325;-70
2024/02/10 07:37:29;;;;;;;;;11.50;11.00;;;;;-144.24;100.00;102022.88;5075798;28;45543;-72
2024/02/10 07:39:55;;;;;;;;;12.33;10.00;;;;;-144.24;100.00;101980.25;5054818;28;45544;-71
2024/02/10 07:42:20;;;;;;;;;13.75;9.50;;;;;-144.24;100.00;101697.91;5077395;28;45479;-70
2024/02/10 07:44:49;;;;;;;;;12.00;7.33;;;;;-144.24;100.00;101714.16;5075058;28;46620;-70
2024/02/10 07:47:15;;;;;;;;;10.00;8.25;;;;;-144.24;100.00;101393.28;5057492;28;45323;-71
2024/02/10 07:49:45;;;;;;;;;12.33;11.33;;;;;-144.24;100.00;101338.44;5057993;28;45392;-70
2024/02/10 07:52:12;;;;;;;;;10.33;10.00;;;;;-144.24;100.00;101263.31;5058009;28;46344;-72
2024/02/10 07:54:37;;;;;;;;;12.33;8.33;;;;;-144.24;100.00;101206.44;5075876;28;46528;-72
2024/02/10 07:57:03;;;;;;;;;13.00;11.00;;;;;-144.24;100.00;100940.41;5076211;28;45485;-71
2024/02/10 07:59:30;;;;;;;;;11.00;9.33;;;;;-144.24;100.00;101021.66;5073316;28;45776;-69
2024/02/10 08:01:55;;;;;;;;;10.33;10.33;;;;;-144.24;100.00;100879.50;5073781;28;45866;-69
2024/02/10 08:04:21;;;;;;;;;9.00;7.33;;;;;-144.24;100.00;100771.88;5048704;28;45931;-70
2024/02/10 08:06:47;;;;;;;;;12.33;11.00;;;;;-144.24;100.00;100570.88;5074849;28;45475;-72
2024/02/10 08:09:12;;;;;;;;;10.67;10.00;;;;;-144.24;100.00;100442.94;5077259;28;45509;-71
2024/02/10 08:11:43;;;;;;;;;11.00;9.33;;;;;-144.24;100.00;100331.28;5075849;28;45430;-71
2024/02/10 08:14:09;;;;;;;;;9.00;8.67;;;;;-144.24;100.00;100000.34;5064763;28;45526;-72
2024/02/10 08:16:37;;;;;;;;;13.67;11.00;;;;;-144.24;100.00;100028.78;5077087;28;45622;-72
2024/02/10 08:19:03;;;;;;;;;8.33;8.33;;;;;-144.24;100.00;99976.00;5078385;28;45300;-71
2024/02/10 08:21:30;;;;;;;;;10.00;9.00;;;;;-144.24;100.00;99931.31;5078496;28;45358;-69
2024/02/10 08:23:57;;;;;;;;;13.67;11.33;;;;;-144.24;100.00;99653.22;5077968;28;46431;-72
2024/02/10 08:26:27;;;;;;;;;11.67;10.67;;;;;-144.24;100.00;99549.69;5055108;28;45398;-70
2024/02/10 08:28:55;;;;;;;;;13.33;10.00;;;;;-144.24;100.00;99456.31;5059534;28;45445;-71
2024/02/10 08:31:20;;;;;;;;;9.00;9.00;;;;;-144.24;100.00;99141.69;5078047;28;45603;-70
2024/02/10 08:33:48;;;;;;;;;11.00;9.00;;;;;-144.24;100.00;99243.16;5059412;28;46345;-71
2024/02/10 08:36:19;;;;;;;;;10.33;10.33;;;;;-144.24;100.00;99046.28;5077886;28;45285;-71
2024/02/10 08:38:45;;;;;;;;;16.00;11.00;;;;;-144.24;100.00;98875.81;5077599;28;45505;-71
2024/02/10 08:41:11;;;;;;;;;12.67;11.00;;;;;-144.24;100.00;98764.16;5076781;27;45561;-71
2024/02/10 08:43:36;;;;;;;;;10.33;9.00;;;;;-144.24;100.00;98741.84;5042266;28;47632;-72
2024/02/10 08:46:02;;;;;;;;;5.00;5.00;;;;;-144.24;100.00;98798.69;5056243;28;62928;-69
2024/02/10 08:48:28;;;;;;;;;15.33;13.00;;;;;-144.24;100.00;98711.41;5070505;28;45446;-70
2024/02/10 08:50:54;;;;;;;;;18.67;14.67;;;;;-144.24;100.00;98585.56;5074968;28;45441;-70
2024/02/10 08:53:20;;;;;;;;;13.33;10.33;;;;;-144.24;100.00;98498.31;5075472;28;46018;-70
2024/02/10 08:55:46;;;;;;;;;12.00;11.33;;;;;-144.24;100.00;98443.53;5074992;28;45550;-73
2024/02/10 08:58:11;;;;;;;;;9.33;8.67;;;;;-144.24;100.00;98380.59;5076766;28;46310;-72
2024/02/10 09:00:37;;;;;;;;;11.67;9.67;;;;;-144.24;100.00;98368.44;5074415;28;46529;-70
2024/02/10 09:03:04;;;;;;;;;10.00;9.67;;;;;-144.24;100.00;98319.72;5076134;28;45922;-70
2024/02/10 09:05:30;;;;;;;;;15.33;12.67;;;;;-144.24;100.00;98187.81;5072387;28;45417;-70
2024/02/10 09:07:55;;;;;;;;;11.67;11.67;;;;;-144.24;100.00;98112.75;5076052;28;45367;-71
2024/02/10 09:10:21;;;;;;;;;11.00;9.33;;;;;-144.24;100.00;98289.28;5076317;28;45501;-70
2024/02/10 09:12:46;;;;;;;;;13.00;11.33;;;;;-144.24;100.00;98425.25;5071228;28;63756;-69
2024/02/10 09:15:12;;;;;;;;;11.67;11.67;;;;;-144.24;100.00;98439.47;5066648;28;45446;-69
2024/02/10 09:17:37;;;;;;;;;14.67;13.00;;;;;-144.24;100.00;98650.53;5073261;28;55060;-69
2024/02/10 09:20:08;;;;;;;;;17.00;12.67;;;;;-144.24;100.00;98630.22;5066779;28;60497;-69
2024/02/10 09:22:34;;;;;;;;;19.00;13.00;;;;;-144.24;100.00;98622.09;5072827;28;46620;-69
2024/02/10 09:24:59;;;;;;;;;12.67;9.00;;;;;-144.24;100.00;98549.03;5073840;28;45464;-69
2024/02/10 09:27:25;;;;;;;;;16.00;14.33;;;;;-144.24;100.00;98461.78;5055401;28;65731;-72
2024/02/10 09:29:51;;;;;;;;;12.67;10.00;;;;;-144.24;100.00;98425.25;5053695;28;67070;-71
2024/02/10 09:32:16;;;;;;;;;13.67;12.00;;;;;-144.24;100.00;98191.88;5075690;28;45521;-71
2024/02/10 09:34:42;;;;;;;;;17.00;13.00;;;;;-144.24;100.00;98082.31;5065285;28;45551;-67
2024/02/10 09:37:08;;;;;;;;;14.33;13.33;;;;;-144.24;100.00;97988.97;5068717;28;60126;-71
2024/02/10 09:39:37;;;;;;;;;19.00;13.00;;;;;-144.24;100.00;97986.94;5070063;28;46520;-69
2024/02/10 09:42:08;;;;;;;;;12.33;11.67;;;;;-144.24;100.00;97962.59;5058224;28;46465;-70
2024/02/10 09:44:34;;;;;;;;;16.00;12.33;;;;;-144.24;100.00;97639.97;5073820;28;45498;-71
2024/02/10 09:47:00;;;;;;;;;14.00;9.67;;;;;-144.24;100.00;96994.81;5074668;28;45331;-71
2024/02/10 09:49:27;;;;;;;;;12.00;11.67;;;;;-144.24;100.00;95552.69;5058151;28;45652;-69
2024/02/10 09:51:53;;;;;;;;;16.33;11.67;;;;;-144.24;100.00;95074.13;5074940;28;46510;-69
2024/02/10 09:54:18;;;;;;;;;17.00;13.00;;;;;-144.24;100.00;94650.34;5074272;28;45506;-69
2024/02/10 09:56:44;;;;;;;;;14.00;12.67;;;;;-144.24;100.00;94271.25;5052325;28;45475;-68
2024/02/10 09:59:13;;;;;;;;;14.67;12.33;;;;;-144.24;100.00;93573.91;5071043;28;45608;-69
2024/02/10 10:01:39;;;;;;;;;12.33;9.67;;;;;-144.24;100.00;93030.72;5066931;28;46512;-68
2024/02/10 10:04:11;;;;;;;;;15.67;12.33;;;;;-144.24;100.00;92627.44;5070019;28;49384;-67
2024/02/10 10:06:44;;;;;;;;;13.67;11.00;;;;;-144.24;100.00;91802.75;5070638;28;45451;-69
2024/02/10 10:09:12;;;;;;;;;15.67;15.67;;;;;-144.24;100.00;91134.22;5051919;28;45578;-67
2024/02/10 10:11:42;;;;;;;;;17.25;14.00;;;;;-144.24;100.00;90565.03;5053919;28;46150;-68
2024/02/10 10:14:08;;;;;;;;;18.67;14.33;;;;;-144.24;100.00;89987.81;5074141;28;45529;-68
2024/02/10 10:16:33;;;;;;;;;20.50;16.75;;;;;-144.24;100.00;89398.56;5075457;28;45449;-69
2024/02/10 10:19:00;;;;;;;;;17.33;16.00;;;;;-144.24;100.00;88659.56;5071350;28;45438;-68
2024/02/10 10:21:26;;;;;;;;;17.67;15.33;;;;;-144.24;100.00;88193.97;5074254;28;45982;-67
2024/02/10 10:23:53;;;;;;;;;16.33;15.67;;;;;-144.24;100.00;87404.59;5073740;28;45267;-68
2024/02/10 10:26:20;;;;;;;;;24.33;16.00;;;;;-144.24;100.00;86874.38;5071179;28;45507;-68
2024/02/10 10:28:48;;;;;;;;;20.67;15.67;;;;;-144.24;100.00;86459.56;5073629;28;45530;-68
2024/02/10 10:31:15;;;;;;;;;20.67;16.33;;;;;-144.24;100.00;85872.84;5055553;28;45486;-68
2024/02/10 10:33:44;;;;;;;;;18.00;14.67;;;;;-144.24;100.00;85352.94;5054348;28;45494;-68
2024/02/10 10:36:15;;;;;;;;;19.33;15.00;;;;;-144.24;100.00;84814.91;5055692;28;45465;-68
2024/02/10 10:38:42;;;;;;;;;19.00;13.00;;;;;-144.24;100.00;84283.00;5052911;28;45650;-69
2024/02/10 10:41:08;;;;;;;;;18.33;15.67;;;;;-144.24;100.00;84117.19;5074746;28;46448;-68
2024/02/10 10:43:36;;;;;;;;;11.00;11.00;;;;;-144.24;100.00;83793.66;5072771;28;45499;-68
2024/02/10 10:46:02;;;;;;;;;14.33;13.00;;;;;-144.24;100.00;83413.53;5076632;28;68877;-67
2024/02/10 10:48:27;;;;;;;;;13.00;13.00;;;;;-144.24;100.00;83049.63;5078187;28;60170;-68
2024/02/10 10:50:55;;;;;;;;;15.67;15.67;;;;;-144.24;100.00;82835.31;5076937;28;74430;-68
2024/02/10 10:53:27;;;;;;;;;20.00;15.33;;;;;-144.24;100.00;82540.19;5060308;28;45526;-71
2024/02/10 10:55:56;;;;;;;;;15.67;14.67;;;;;-144.24;100.00;82206.69;5071230;28;45600;-71